Flight Track Log - Related Links

Times and Time Zones

All times are in EDT time to prevent confusion due to time zone crossing. See the TYR706 flight status page for this flight to view local times or setup timezone preferences in your user account.


Time Position Orientation Groundspeed Altitude Reporting Facility
EDT Latitude Longitude Course Direction KTS MPH feet Rate Location/Type
Tue 05:41:00 AM 49.6551 14.7983 142° Southeast  Level Estimated
Tue 05:42:00 AM 49.5913 14.8744 142° Southeast  Level Estimated
Tue 05:43:00 AM 49.5273 14.9503 142° Southeast  Level Estimated
Tue 05:44:00 AM 49.4634 15.0260 142° Southeast  Level Estimated
Tue 05:45:00 AM 49.3993 15.1015 142° Southeast  Level Estimated
Tue 05:46:00 AM 49.3353 15.1768 143° Southeast  Level Estimated
Tue 05:47:00 AM 49.2711 15.2519 143° Southeast  Level Estimated
Tue 05:48:00 AM 49.2070 15.3268 143° Southeast  Level Estimated
Tue 05:49:00 AM 49.1428 15.4015 143° Southeast  Level Estimated
Tue 05:50:00 AM 49.0785 15.4761 143° Southeast  Level Estimated
Tue 05:51:00 AM 49.0142 15.5504 143° Southeast  Level Estimated
Tue 05:52:00 AM 48.9498 15.6245 143° Southeast  Level Estimated
Tue 05:53:00 AM 48.8854 15.6985 143° Southeast  Level Estimated
Tue 05:54:00 AM 48.8210 15.7722 143° Southeast  Level Estimated
Tue 05:55:00 AM 48.7565 15.8458 143° Southeast  Level Estimated
Tue 05:56:00 AM 48.6919 15.9192 143° Southeast  Level Estimated
Tue 05:57:00 AM 48.6273 15.9924 143° Southeast  Level Estimated
Tue 05:58:00 AM 48.5627 16.0654 143° Southeast  Level Estimated
Tue 05:59:00 AM 48.4980 16.1382 143° Southeast  Level Estimated
Tue 06:00:00 AM 48.4333 16.2108 143° Southeast  Level Estimated
Tue 06:01:00 AM 48.3685 16.2833 143° Southeast  Level Estimated
Tue 06:02:00 AM 48.3037 16.3555 143° Southeast  Level Estimated
Tue 06:03:00 AM 48.2388 16.4276 143° Southeast  Level Estimated
Tue 06:04:00 AM 48.1739 16.4995 144° Southeast  Level Estimated
Tue 06:05:00 AM 48.1103 16.5697 144° Southeast  Level Estimated
Tue 06:06:00 AM 48.1103 16.5697 North  Level Estimated
Tue 06:07:00 AM 48.1103 16.5697 North  Level Estimated
Tue 06:08:00 AM 48.1103 16.5697 North  Level Estimated
Tue 06:09:00 AM 48.1103 16.5697 North  Level Estimated
Tue 06:10:00 AM 48.1103 16.5697 North  Level Estimated
Tue 06:11:00 AM 48.1103 16.5697 North  Level Estimated
Tue 06:12:00 AM 48.1103 16.5697 North  Level Estimated
Tue 06:13:00 AM 48.1103 16.5697 North  Level Estimated
Tue 06:14:00 AM 48.1103 16.5697 North  Level Estimated
Tue 06:15:00 AM 48.1103 16.5697 North  Level Estimated
Tue 06:16:00 AM 48.1103 16.5697 North  Level Estimated
Tue 06:17:00 AM 48.1103 16.5697 North  Level Estimated
Tue 06:18:00 AM 48.1103 16.5697 North  Level Estimated
Tue 06:19:00 AM 48.1103 16.5697 North  Level Estimated

Login

Don't have an account? Register now (free) for customized features, flight alerts, and more!